createdAt,value
2022-12-04T00:04:47.444Z,19.88
2022-12-04T00:09:49.115Z,19.77
2022-12-04T00:15:23.846Z,20.15
2022-12-04T00:25:13.969Z,18.85
2022-12-04T00:30:15.626Z,19.45
2022-12-04T00:35:17.335Z,19.00
2022-12-04T00:40:18.959Z,18.17
2022-12-04T00:45:20.668Z,18.50
2022-12-04T00:50:22.337Z,18.58
2022-12-04T00:55:25.240Z,18.10
2022-12-04T01:00:28.591Z,18.25
2022-12-04T01:05:30.393Z,18.27
2022-12-04T01:10:31.997Z,17.83
2022-12-04T01:15:33.667Z,17.95
2022-12-04T01:20:35.359Z,17.38
2022-12-04T01:25:36.977Z,18.38
2022-12-04T01:30:38.597Z,16.60
2022-12-04T01:35:40.180Z,16.13
2022-12-04T01:40:44.400Z,15.45
2022-12-04T01:45:51.070Z,16.63
2022-12-04T01:50:56.567Z,15.02
2022-12-04T01:55:58.212Z,15.15
2022-12-04T02:01:08.457Z,15.00
2022-12-04T02:06:10.854Z,16.00
2022-12-04T02:11:44.671Z,15.57
2022-12-04T02:17:11.166Z,14.15
2022-12-04T02:22:48.545Z,14.43
2022-12-04T02:28:17.768Z,14.60
2022-12-04T02:33:23.702Z,14.88
2022-12-04T02:38:33.269Z,14.77
2022-12-04T02:44:25.927Z,14.18
2022-12-04T02:49:36.321Z,14.23
2022-12-04T02:54:42.431Z,14.43
2022-12-04T02:59:47.461Z,13.90
2022-12-04T03:04:51.959Z,14.07
2022-12-04T03:10:02.943Z,13.65
2022-12-04T03:15:10.643Z,14.85
2022-12-04T03:20:14.859Z,14.30
2022-12-04T03:25:16.481Z,14.52
2022-12-04T03:30:21.875Z,15.00
2022-12-04T03:35:29.244Z,14.98
2022-12-04T03:40:52.539Z,14.80
2022-12-04T03:46:09.550Z,14.25
2022-12-04T03:51:19.567Z,14.15
2022-12-04T03:56:29.439Z,14.68
2022-12-04T04:01:38.662Z,15.95
2022-12-04T04:06:47.416Z,14.88
2022-12-04T04:11:57.169Z,15.38
2022-12-04T04:17:26.761Z,14.85
2022-12-04T04:22:50.401Z,15.27
2022-12-04T04:27:57.046Z,15.77
2022-12-04T04:33:08.345Z,15.60
2022-12-04T04:38:12.617Z,15.25
2022-12-04T04:43:37.082Z,15.38
2022-12-04T04:48:46.654Z,15.45
2022-12-04T04:53:52.424Z,16.05
2022-12-04T04:58:54.076Z,15.63
2022-12-04T05:03:55.651Z,16.05
2022-12-04T05:08:57.363Z,15.38
2022-12-04T05:13:58.993Z,15.85
2022-12-04T05:19:19.513Z,15.65
2022-12-04T05:24:21.110Z,15.43
2022-12-04T05:29:22.719Z,15.25
2022-12-04T05:34:24.371Z,15.15
2022-12-04T05:39:25.946Z,15.32
2022-12-04T05:44:27.548Z,15.35
2022-12-04T05:49:30.286Z,15.00
2022-12-04T05:54:32.293Z,14.43
2022-12-04T05:59:34.188Z,15.50
2022-12-04T06:04:37.316Z,14.57
2022-12-04T06:09:39.019Z,14.55
2022-12-04T06:14:40.610Z,14.20
2022-12-04T06:19:42.193Z,14.88
2022-12-04T06:24:43.790Z,14.20
2022-12-04T06:29:45.402Z,14.75
2022-12-04T06:34:49.401Z,14.63
2022-12-04T06:39:51.386Z,14.18
2022-12-04T06:44:53.154Z,14.10
2022-12-04T06:49:55.072Z,14.35
2022-12-04T06:54:56.838Z,14.55
2022-12-04T06:59:58.662Z,15.15
2022-12-04T07:05:00.331Z,14.45
2022-12-04T07:10:03.405Z,14.15
2022-12-04T07:15:05.503Z,14.27
2022-12-04T07:20:07.554Z,14.10
2022-12-04T07:25:09.751Z,15.50
2022-12-04T07:30:15.640Z,15.55
2022-12-04T07:35:17.710Z,15.18
2022-12-04T07:40:19.386Z,15.55
2022-12-04T07:45:21.210Z,14.15
2022-12-04T07:50:23.025Z,15.65
2022-12-04T07:55:24.620Z,15.15
2022-12-04T08:00:26.266Z,14.60
2022-12-04T08:05:27.884Z,15.23
2022-12-04T08:10:29.496Z,15.73
2022-12-04T08:15:31.139Z,15.90
2022-12-04T08:20:32.869Z,15.70
2022-12-04T08:25:34.511Z,15.50
2022-12-04T08:30:36.297Z,17.27
2022-12-04T08:35:37.977Z,16.25
2022-12-04T08:40:39.544Z,16.15
2022-12-04T08:45:41.133Z,17.95
2022-12-04T08:50:45.890Z,17.10
2022-12-04T08:55:47.575Z,17.25
2022-12-04T09:00:49.784Z,17.70
2022-12-04T09:05:51.430Z,16.17
2022-12-04T09:10:53.018Z,16.70
2022-12-04T09:15:54.670Z,16.33
2022-12-04T09:20:58.582Z,17.35
2022-12-04T09:26:00.221Z,16.90
2022-12-04T09:31:04.613Z,17.58
2022-12-04T09:36:06.619Z,17.70
2022-12-04T09:41:36.169Z,16.90
2022-12-04T09:46:42.833Z,16.65
2022-12-04T09:51:45.198Z,17.05
2022-12-04T09:56:54.938Z,15.48
2022-12-04T10:02:31.541Z,17.30
2022-12-04T10:07:54.470Z,16.75
2022-12-04T10:13:14.898Z,15.82
2022-12-04T10:18:22.417Z,16.30
2022-12-04T10:23:51.852Z,17.15
2022-12-04T10:29:01.190Z,16.35
2022-12-04T10:34:14.154Z,15.55
2022-12-04T10:39:25.389Z,15.63
2022-12-04T10:49:30.733Z,18.20
2022-12-04T10:55:00.974Z,18.00
2022-12-04T11:00:22.714Z,16.95
2022-12-04T11:05:32.181Z,16.30
2022-12-04T11:10:33.758Z,18.02
2022-12-04T11:15:43.135Z,18.63
2022-12-04T11:20:51.081Z,18.83
2022-12-04T11:26:05.218Z,18.60
2022-12-04T11:31:09.496Z,18.88
2022-12-04T11:36:22.049Z,18.48
2022-12-04T11:41:29.270Z,18.58
2022-12-04T11:46:34.999Z,18.58
2022-12-04T11:51:49.084Z,18.23
2022-12-04T11:56:59.590Z,18.17
2022-12-04T12:02:38.280Z,18.17
2022-12-04T12:08:02.410Z,18.60
2022-12-04T12:13:18.178Z,16.88
2022-12-04T12:18:38.086Z,16.02
2022-12-04T12:23:44.890Z,15.98
2022-12-04T12:29:04.589Z,16.30
2022-12-04T12:34:15.584Z,15.60
2022-12-04T12:39:26.055Z,15.50
2022-12-04T12:44:41.991Z,15.27
2022-12-04T12:49:54.214Z,14.73
2022-12-04T12:55:02.604Z,15.18
2022-12-04T13:00:07.816Z,14.20
2022-12-04T13:05:13.523Z,14.75
2022-12-04T13:10:48.064Z,16.02
2022-12-04T13:16:19.763Z,15.30
2022-12-04T13:21:47.513Z,16.83
2022-12-04T13:27:07.793Z,15.80
2022-12-04T13:32:44.506Z,15.60
2022-12-04T13:38:10.637Z,15.68
2022-12-04T13:43:23.918Z,14.95
2022-12-04T13:48:30.973Z,15.57
2022-12-04T13:53:37.870Z,14.77
2022-12-04T13:58:39.471Z,14.90
2022-12-04T14:03:50.499Z,14.68
2022-12-04T14:08:58.774Z,14.45
2022-12-04T14:14:06.517Z,15.48
2022-12-04T14:19:26.773Z,15.68
2022-12-04T14:24:31.862Z,14.95
2022-12-04T14:29:52.050Z,14.82
2022-12-04T14:34:55.161Z,16.23
2022-12-04T14:39:58.645Z,16.55
2022-12-04T14:45:02.629Z,16.98
2022-12-04T14:50:29.862Z,16.60
2022-12-04T14:55:52.587Z,17.88
2022-12-04T15:00:56.813Z,17.55
2022-12-04T15:06:12.067Z,16.50
2022-12-04T15:11:39.339Z,17.73
2022-12-04T15:16:41.034Z,17.70
2022-12-04T15:21:42.761Z,18.10
2022-12-04T15:26:44.516Z,17.13
2022-12-04T15:31:53.475Z,17.08
2022-12-04T15:37:18.661Z,17.30
2022-12-04T15:42:30.431Z,17.10
2022-12-04T15:47:54.210Z,17.00
2022-12-04T15:53:13.703Z,17.63
2022-12-04T15:58:33.297Z,17.67
2022-12-04T16:03:46.153Z,18.08
2022-12-04T16:08:53.611Z,17.50
2022-12-04T16:14:15.548Z,17.40
2022-12-04T16:19:39.137Z,16.95
2022-12-04T16:24:41.008Z,17.05
2022-12-04T16:29:42.875Z,17.65
2022-12-04T16:34:44.671Z,17.15
2022-12-04T16:39:46.795Z,17.98
2022-12-04T16:44:48.944Z,17.35
2022-12-04T16:49:51.989Z,18.17
2022-12-04T16:54:53.704Z,17.92
2022-12-04T16:59:55.666Z,17.80
2022-12-04T17:04:58.252Z,17.65
2022-12-04T17:09:59.945Z,17.70
2022-12-04T17:15:01.554Z,18.80
2022-12-04T17:20:03.588Z,20.17
2022-12-04T17:25:06.147Z,18.50
2022-12-04T17:30:08.699Z,18.25
2022-12-04T17:35:12.647Z,18.83
2022-12-04T17:40:14.753Z,18.88
2022-12-04T17:45:17.056Z,18.77
2022-12-04T17:50:18.662Z,19.75
2022-12-04T17:55:20.278Z,19.20
2022-12-04T18:00:21.967Z,19.13
2022-12-04T18:05:23.697Z,19.10
2022-12-04T18:10:25.371Z,18.23
2022-12-04T18:15:26.974Z,18.83
2022-12-04T18:20:28.572Z,18.65
2022-12-04T18:25:30.179Z,19.30
2022-12-04T18:30:33.653Z,18.30
2022-12-04T18:35:35.309Z,18.73
2022-12-04T18:40:36.981Z,20.67
2022-12-04T18:45:38.644Z,20.38
2022-12-04T18:50:43.425Z,20.80
2022-12-04T18:55:45.029Z,20.27
2022-12-04T19:00:47.210Z,19.02
2022-12-04T19:05:51.903Z,21.73
2022-12-04T19:10:53.583Z,21.60
2022-12-04T19:15:55.189Z,21.65
2022-12-04T19:20:57.435Z,21.95
2022-12-04T19:26:00.661Z,23.00
2022-12-04T19:31:02.262Z,22.13
2022-12-04T19:36:05.888Z,22.92
2022-12-04T19:41:17.988Z,24.15
2022-12-04T19:46:26.942Z,22.88
2022-12-04T19:51:32.611Z,22.85
2022-12-04T19:56:35.521Z,22.52
2022-12-04T20:01:37.364Z,21.98
2022-12-04T20:06:44.841Z,23.13
2022-12-04T20:11:46.791Z,21.35
2022-12-04T20:16:48.653Z,21.60
2022-12-04T20:21:56.153Z,21.27
2022-12-04T20:27:00.989Z,22.80
2022-12-04T20:32:02.661Z,22.77
2022-12-04T20:37:04.298Z,25.30
2022-12-04T20:42:05.914Z,25.80
2022-12-04T20:47:07.553Z,26.70
2022-12-04T20:52:09.171Z,23.88
2022-12-04T20:57:10.990Z,25.48
2022-12-04T21:02:13.082Z,23.48
2022-12-04T21:07:14.726Z,26.13
2022-12-04T21:12:39.896Z,26.45
2022-12-04T21:17:44.679Z,29.10
2022-12-04T21:22:46.300Z,29.17
2022-12-04T21:27:47.956Z,31.38
2022-12-04T21:32:49.546Z,33.53
2022-12-04T21:37:51.152Z,30.55
2022-12-04T21:42:52.784Z,32.15
2022-12-04T21:47:54.378Z,27.08
2022-12-04T21:52:56.060Z,26.92
2022-12-04T21:57:57.644Z,27.92
2022-12-04T22:02:59.733Z,26.38
2022-12-04T22:08:01.486Z,24.20
2022-12-04T22:13:03.250Z,26.20
2022-12-04T22:18:06.212Z,30.52
2022-12-04T22:23:08.831Z,29.92
2022-12-04T22:28:10.440Z,30.23
2022-12-04T22:33:12.043Z,30.25
2022-12-04T22:38:14.003Z,29.83
2022-12-04T22:43:16.750Z,31.98
2022-12-04T22:48:18.348Z,27.48
2022-12-04T22:53:20.065Z,30.45
2022-12-04T22:58:22.425Z,29.48
2022-12-04T23:03:24.624Z,31.50
2022-12-04T23:08:26.582Z,30.00
2022-12-04T23:13:28.241Z,33.17
2022-12-04T23:18:29.957Z,30.42
2022-12-04T23:23:32.637Z,30.08
2022-12-04T23:28:35.189Z,27.27
2022-12-04T23:33:37.521Z,29.98
2022-12-04T23:38:40.283Z,29.20
2022-12-04T23:43:42.662Z,26.63
2022-12-04T23:48:45.438Z,28.38
2022-12-04T23:53:48.213Z,27.40
2022-12-04T23:58:52.449Z,29.63
